Kezdőlap
METAR-TAF:

METAR-TAF

Repülőterek :

East London, Dél-afrikai Köztársaság

földrajzi szélesség: 33-02S, földrajzi hosszúság: 027-50E, magasság: 125 m

Jelenlegi meteorológiai megfigyelések

A jelentés 58 perccel ezelõtt készült, 05:06 UTC
Nyugat-északnyugati szél 6 kt
Hőmérséklet 18°C
Páratartalom 52%
Légköri nyomás 1024 hPa
Látótávolság 10 km, vagy több
felhőtlen 1500 m magasságban, és nincs gomolyfelhõ

METAR: FAEL 240506Z 29006KT CAVOK 18/08 Q1024

Idő: 08:04 (06:04 UTC)

Előrejelzés

A jelentés 3 órával és 4 perccel ezelõtt készült, 03:00 UTC
Az előrejelzés 24-én 04 óra UTC és 24-én 15 óra UTC között érvényes
Észak-északnyugati szél 5 kt
Látótávolság 10 km, vagy több
felhőtlen 1500 m magasságban, és nincs gomolyfelhõ
24-én 06 óra UTC és 24-én 08 óra UTC között fokozatosan kialakuló
Dél-délnyugati szél 10 kt

TAF: FAEL 240300Z 2404/2415 33005KT CAVOK TX24/2409Z TN13/2404Z BECMG 2406/2408 21010KT

Meteorológiai megfigyelések és előrejelzések több, mint 4000 repülőtéren (METAR és TAF jelentéseket).

A térképen piros és sárga pontok jelzik az elérhető meteorológiai állomásokat.

Mozgassa az egeret a pont fölött, hogy megjelenjen az állomás neve.

Azután kattintson az időjárási megfigyelések és előrejelzések megtekintéséhez.

A térkép megváltoztatása: kattintson a fekete keresztel jelölt zöld gombra ráközelítéshez, a vonallal jelölt zöld gombra távolításhoz, vagy a zöld nyilakra a szomszédos térképek eléréséhez.


METAR-TAF: